sensor_id;sensor_type;location;lat;lon;timestamp;temperature;humidity
7658;DHT22;8462;53.156;8.220;2022-09-24T00:00:42;15.60;85.60
7658;DHT22;8462;53.156;8.220;2022-09-24T00:03:10;15.70;85.40
7658;DHT22;8462;53.156;8.220;2022-09-24T00:05:37;15.70;85.30
7658;DHT22;8462;53.156;8.220;2022-09-24T00:08:07;15.70;85.30
7658;DHT22;8462;53.156;8.220;2022-09-24T00:10:36;15.80;85.10
7658;DHT22;8462;53.156;8.220;2022-09-24T00:13:05;15.80;84.90
7658;DHT22;8462;53.156;8.220;2022-09-24T00:15:35;15.80;84.90
7658;DHT22;8462;53.156;8.220;2022-09-24T00:18:02;15.70;84.90
7658;DHT22;8462;53.156;8.220;2022-09-24T00:20:30;15.70;85.00
7658;DHT22;8462;53.156;8.220;2022-09-24T00:22:57;15.70;85.20
7658;DHT22;8462;53.156;8.220;2022-09-24T00:25:26;15.70;85.20
7658;DHT22;8462;53.156;8.220;2022-09-24T00:28:11;15.60;85.30
7658;DHT22;8462;53.156;8.220;2022-09-24T00:30:40;15.60;85.40
7658;DHT22;8462;53.156;8.220;2022-09-24T00:33:07;15.60;85.60
7658;DHT22;8462;53.156;8.220;2022-09-24T00:35:35;15.60;85.80
7658;DHT22;8462;53.156;8.220;2022-09-24T00:38:02;15.50;86.00
7658;DHT22;8462;53.156;8.220;2022-09-24T00:40:34;15.50;86.00
7658;DHT22;8462;53.156;8.220;2022-09-24T00:43:01;15.50;86.30
7658;DHT22;8462;53.156;8.220;2022-09-24T00:45:30;15.50;86.20
7658;DHT22;8462;53.156;8.220;2022-09-24T00:47:58;15.50;86.20
7658;DHT22;8462;53.156;8.220;2022-09-24T00:50:28;15.50;86.10
7658;DHT22;8462;53.156;8.220;2022-09-24T00:52:59;15.50;86.00
7658;DHT22;8462;53.156;8.220;2022-09-24T00:55:27;15.50;86.00
7658;DHT22;8462;53.156;8.220;2022-09-24T00:57:58;15.50;86.10
7658;DHT22;8462;53.156;8.220;2022-09-24T01:00:26;15.40;86.10
7658;DHT22;8462;53.156;8.220;2022-09-24T01:02:55;15.40;86.30
7658;DHT22;8462;53.156;8.220;2022-09-24T01:05:24;15.40;86.30
7658;DHT22;8462;53.156;8.220;2022-09-24T01:07:50;15.30;86.50
7658;DHT22;8462;53.156;8.220;2022-09-24T01:10:22;15.40;86.50
7658;DHT22;8462;53.156;8.220;2022-09-24T01:13:11;15.30;86.50
7658;DHT22;8462;53.156;8.220;2022-09-24T01:15:46;15.30;86.60
7658;DHT22;8462;53.156;8.220;2022-09-24T01:18:22;15.30;86.80
7658;DHT22;8462;53.156;8.220;2022-09-24T01:21:26;15.30;86.80
7658;DHT22;8462;53.156;8.220;2022-09-24T01:24:21;15.30;86.90
7658;DHT22;8462;53.156;8.220;2022-09-24T01:26:59;15.20;87.00
7658;DHT22;8462;53.156;8.220;2022-09-24T01:29:43;15.20;86.80
7658;DHT22;8462;53.156;8.220;2022-09-24T01:32:16;15.20;86.70
7658;DHT22;8462;53.156;8.220;2022-09-24T01:34:47;15.20;86.90
7658;DHT22;8462;53.156;8.220;2022-09-24T01:37:17;15.20;87.10
7658;DHT22;8462;53.156;8.220;2022-09-24T01:39:48;15.20;87.10
7658;DHT22;8462;53.156;8.220;2022-09-24T01:42:16;15.10;87.10
7658;DHT22;8462;53.156;8.220;2022-09-24T01:44:47;15.10;87.10
7658;DHT22;8462;53.156;8.220;2022-09-24T01:47:19;15.10;87.10
7658;DHT22;8462;53.156;8.220;2022-09-24T01:49:46;15.10;87.20
7658;DHT22;8462;53.156;8.220;2022-09-24T01:52:19;15.10;87.20
7658;DHT22;8462;53.156;8.220;2022-09-24T01:54:47;15.00;87.30
7658;DHT22;8462;53.156;8.220;2022-09-24T01:57:20;15.10;87.40
7658;DHT22;8462;53.156;8.220;2022-09-24T01:59:54;15.00;87.30
7658;DHT22;8462;53.156;8.220;2022-09-24T02:02:24;15.00;87.40
7658;DHT22;8462;53.156;8.220;2022-09-24T02:04:57;15.00;87.50
7658;DHT22;8462;53.156;8.220;2022-09-24T02:07:28;15.00;87.30
7658;DHT22;8462;53.156;8.220;2022-09-24T02:09:58;15.00;87.40
7658;DHT22;8462;53.156;8.220;2022-09-24T02:12:28;15.00;87.60
7658;DHT22;8462;53.156;8.220;2022-09-24T02:14:59;15.10;87.80
7658;DHT22;8462;53.156;8.220;2022-09-24T02:17:30;15.10;87.60
7658;DHT22;8462;53.156;8.220;2022-09-24T02:20:00;15.10;87.60
7658;DHT22;8462;53.156;8.220;2022-09-24T02:22:29;15.10;87.60
7658;DHT22;8462;53.156;8.220;2022-09-24T02:24:57;15.10;87.50
7658;DHT22;8462;53.156;8.220;2022-09-24T02:27:26;15.10;87.40
7658;DHT22;8462;53.156;8.220;2022-09-24T02:29:53;15.20;87.70
7658;DHT22;8462;53.156;8.220;2022-09-24T02:32:22;15.10;87.50
7658;DHT22;8462;53.156;8.220;2022-09-24T02:34:52;15.10;87.40
7658;DHT22;8462;53.156;8.220;2022-09-24T02:37:21;15.20;87.50
7658;DHT22;8462;53.156;8.220;2022-09-24T02:39:49;15.20;87.50
7658;DHT22;8462;53.156;8.220;2022-09-24T02:42:16;15.10;87.30
7658;DHT22;8462;53.156;8.220;2022-09-24T02:44:44;15.20;87.50
7658;DHT22;8462;53.156;8.220;2022-09-24T02:47:12;15.10;87.30
7658;DHT22;8462;53.156;8.220;2022-09-24T02:49:40;15.20;87.60
7658;DHT22;8462;53.156;8.220;2022-09-24T02:52:07;15.30;87.70
7658;DHT22;8462;53.156;8.220;2022-09-24T02:54:34;15.30;87.50
7658;DHT22;8462;53.156;8.220;2022-09-24T02:57:02;15.30;87.40
7658;DHT22;8462;53.156;8.220;2022-09-24T02:59:29;15.30;87.40
7658;DHT22;8462;53.156;8.220;2022-09-24T03:01:56;15.30;87.20
7658;DHT22;8462;53.156;8.220;2022-09-24T03:04:23;15.40;87.60
7658;DHT22;8462;53.156;8.220;2022-09-24T03:06:52;15.40;87.40
7658;DHT22;8462;53.156;8.220;2022-09-24T03:09:19;15.30;87.40
7658;DHT22;8462;53.156;8.220;2022-09-24T03:11:46;15.30;87.60
7658;DHT22;8462;53.156;8.220;2022-09-24T03:14:12;15.30;87.80
7658;DHT22;8462;53.156;8.220;2022-09-24T03:16:39;15.30;87.60
7658;DHT22;8462;53.156;8.220;2022-09-24T03:19:07;15.30;87.70
7658;DHT22;8462;53.156;8.220;2022-09-24T03:21:33;15.30;88.10
7658;DHT22;8462;53.156;8.220;2022-09-24T03:24:02;15.30;88.20
7658;DHT22;8462;53.156;8.220;2022-09-24T03:26:29;15.30;88.30
7658;DHT22;8462;53.156;8.220;2022-09-24T03:28:56;15.30;88.20
7658;DHT22;8462;53.156;8.220;2022-09-24T03:31:23;15.30;88.40
7658;DHT22;8462;53.156;8.220;2022-09-24T03:33:49;15.30;88.30
7658;DHT22;8462;53.156;8.220;2022-09-24T03:36:18;15.30;88.30
7658;DHT22;8462;53.156;8.220;2022-09-24T03:38:48;15.30;88.50
7658;DHT22;8462;53.156;8.220;2022-09-24T03:41:17;15.30;88.40
7658;DHT22;8462;53.156;8.220;2022-09-24T03:43:44;15.40;88.20
7658;DHT22;8462;53.156;8.220;2022-09-24T03:46:11;15.40;88.20
7658;DHT22;8462;53.156;8.220;2022-09-24T03:48:39;15.40;88.20
7658;DHT22;8462;53.156;8.220;2022-09-24T03:51:07;15.40;88.30
7658;DHT22;8462;53.156;8.220;2022-09-24T03:53:35;15.40;88.30
7658;DHT22;8462;53.156;8.220;2022-09-24T03:56:03;15.40;88.70
7658;DHT22;8462;53.156;8.220;2022-09-24T03:58:33;15.40;88.70
7658;DHT22;8462;53.156;8.220;2022-09-24T04:01:02;15.40;88.80
7658;DHT22;8462;53.156;8.220;2022-09-24T04:03:29;15.40;88.80
7658;DHT22;8462;53.156;8.220;2022-09-24T04:05:56;15.40;89.00
7658;DHT22;8462;53.156;8.220;2022-09-24T04:08:23;15.50;88.80
7658;DHT22;8462;53.156;8.220;2022-09-24T04:10:50;15.50;88.80
7658;DHT22;8462;53.156;8.220;2022-09-24T04:13:18;15.50;88.70
7658;DHT22;8462;53.156;8.220;2022-09-24T04:15:47;15.60;88.70
7658;DHT22;8462;53.156;8.220;2022-09-24T04:18:15;15.50;89.50
7658;DHT22;8462;53.156;8.220;2022-09-24T04:20:41;15.60;88.50
7658;DHT22;8462;53.156;8.220;2022-09-24T04:23:09;15.60;88.60
7658;DHT22;8462;53.156;8.220;2022-09-24T04:25:36;15.70;88.50
7658;DHT22;8462;53.156;8.220;2022-09-24T04:28:06;15.70;88.20
7658;DHT22;8462;53.156;8.220;2022-09-24T04:30:34;15.60;88.10
7658;DHT22;8462;53.156;8.220;2022-09-24T04:33:03;15.70;88.30
7658;DHT22;8462;53.156;8.220;2022-09-24T04:35:31;15.70;88.40
7658;DHT22;8462;53.156;8.220;2022-09-24T04:38:01;15.70;88.20
7658;DHT22;8462;53.156;8.220;2022-09-24T04:40:29;15.70;88.00
7658;DHT22;8462;53.156;8.220;2022-09-24T04:42:55;15.70;88.10
7658;DHT22;8462;53.156;8.220;2022-09-24T04:45:22;15.70;88.30
7658;DHT22;8462;53.156;8.220;2022-09-24T04:47:51;15.70;88.20
7658;DHT22;8462;53.156;8.220;2022-09-24T04:50:22;15.70;88.10
7658;DHT22;8462;53.156;8.220;2022-09-24T04:52:52;15.70;88.40
7658;DHT22;8462;53.156;8.220;2022-09-24T04:55:19;15.60;88.40
7658;DHT22;8462;53.156;8.220;2022-09-24T04:57:47;15.60;88.50
7658;DHT22;8462;53.156;8.220;2022-09-24T05:00:18;15.60;88.70
7658;DHT22;8462;53.156;8.220;2022-09-24T05:02:45;15.60;88.90
7658;DHT22;8462;53.156;8.220;2022-09-24T05:05:12;15.60;88.50
7658;DHT22;8462;53.156;8.220;2022-09-24T05:07:41;15.60;88.50
7658;DHT22;8462;53.156;8.220;2022-09-24T05:10:09;15.60;88.30
7658;DHT22;8462;53.156;8.220;2022-09-24T05:12:36;15.70;88.20
7658;DHT22;8462;53.156;8.220;2022-09-24T05:15:03;15.60;89.30
7658;DHT22;8462;53.156;8.220;2022-09-24T05:17:30;15.60;88.40
7658;DHT22;8462;53.156;8.220;2022-09-24T05:19:57;15.60;88.40
7658;DHT22;8462;53.156;8.220;2022-09-24T05:22:26;15.50;88.40
7658;DHT22;8462;53.156;8.220;2022-09-24T05:24:54;15.60;88.50
7658;DHT22;8462;53.156;8.220;2022-09-24T05:27:21;15.60;88.60
7658;DHT22;8462;53.156;8.220;2022-09-24T05:29:48;15.60;88.80
7658;DHT22;8462;53.156;8.220;2022-09-24T05:32:16;15.60;88.60
7658;DHT22;8462;53.156;8.220;2022-09-24T05:34:44;15.60;88.50
7658;DHT22;8462;53.156;8.220;2022-09-24T05:37:12;15.60;88.40
7658;DHT22;8462;53.156;8.220;2022-09-24T05:39:39;15.60;88.40
7658;DHT22;8462;53.156;8.220;2022-09-24T05:42:09;15.60;88.60
7658;DHT22;8462;53.156;8.220;2022-09-24T05:44:38;15.50;88.70
7658;DHT22;8462;53.156;8.220;2022-09-24T05:47:05;15.50;88.70
7658;DHT22;8462;53.156;8.220;2022-09-24T05:49:32;15.50;88.80
7658;DHT22;8462;53.156;8.220;2022-09-24T05:51:59;15.60;88.90
7658;DHT22;8462;53.156;8.220;2022-09-24T05:54:27;15.60;88.70
7658;DHT22;8462;53.156;8.220;2022-09-24T05:56:54;15.60;88.40
7658;DHT22;8462;53.156;8.220;2022-09-24T05:59:23;15.60;88.40
7658;DHT22;8462;53.156;8.220;2022-09-24T06:01:49;15.60;88.30
7658;DHT22;8462;53.156;8.220;2022-09-24T06:04:17;15.60;88.40
7658;DHT22;8462;53.156;8.220;2022-09-24T06:06:44;15.60;88.30
7658;DHT22;8462;53.156;8.220;2022-09-24T06:09:11;15.60;88.40
7658;DHT22;8462;53.156;8.220;2022-09-24T06:11:39;15.70;88.30
7658;DHT22;8462;53.156;8.220;2022-09-24T06:14:06;15.70;88.20
7658;DHT22;8462;53.156;8.220;2022-09-24T06:16:35;15.70;88.10
7658;DHT22;8462;53.156;8.220;2022-09-24T06:19:02;15.70;88.20
7658;DHT22;8462;53.156;8.220;2022-09-24T06:21:29;15.80;88.00
7658;DHT22;8462;53.156;8.220;2022-09-24T06:23:56;15.80;87.80
7658;DHT22;8462;53.156;8.220;2022-09-24T06:26:23;15.80;87.50
7658;DHT22;8462;53.156;8.220;2022-09-24T06:28:52;15.90;87.60
7658;DHT22;8462;53.156;8.220;2022-09-24T06:31:19;15.90;87.60
7658;DHT22;8462;53.156;8.220;2022-09-24T06:33:47;15.90;87.60
7658;DHT22;8462;53.156;8.220;2022-09-24T06:36:14;15.90;87.20
7658;DHT22;8462;53.156;8.220;2022-09-24T06:38:41;16.00;86.80
7658;DHT22;8462;53.156;8.220;2022-09-24T06:41:10;16.00;87.40
7658;DHT22;8462;53.156;8.220;2022-09-24T06:43:40;16.10;87.30
7658;DHT22;8462;53.156;8.220;2022-09-24T06:46:07;16.10;87.00
7658;DHT22;8462;53.156;8.220;2022-09-24T06:48:34;16.10;87.40
7658;DHT22;8462;53.156;8.220;2022-09-24T06:51:04;16.20;87.20
7658;DHT22;8462;53.156;8.220;2022-09-24T06:53:32;16.20;87.10
7658;DHT22;8462;53.156;8.220;2022-09-24T06:55:59;16.30;86.40
7658;DHT22;8462;53.156;8.220;2022-09-24T06:58:28;16.30;86.10
7658;DHT22;8462;53.156;8.220;2022-09-24T07:00:56;16.30;86.50
7658;DHT22;8462;53.156;8.220;2022-09-24T07:03:24;16.40;85.80
7658;DHT22;8462;53.156;8.220;2022-09-24T07:05:52;16.30;86.30
7658;DHT22;8462;53.156;8.220;2022-09-24T07:08:20;16.40;86.50
7658;DHT22;8462;53.156;8.220;2022-09-24T07:10:48;16.50;86.20
7658;DHT22;8462;53.156;8.220;2022-09-24T07:13:17;16.50;86.20
7658;DHT22;8462;53.156;8.220;2022-09-24T07:15:47;16.50;86.10
7658;DHT22;8462;53.156;8.220;2022-09-24T07:18:15;16.50;85.80
7658;DHT22;8462;53.156;8.220;2022-09-24T07:20:42;16.50;85.80
7658;DHT22;8462;53.156;8.220;2022-09-24T07:23:10;16.50;85.40
7658;DHT22;8462;53.156;8.220;2022-09-24T07:25:39;16.50;85.60
7658;DHT22;8462;53.156;8.220;2022-09-24T07:28:07;16.50;85.80
7658;DHT22;8462;53.156;8.220;2022-09-24T07:30:35;16.60;86.20
7658;DHT22;8462;53.156;8.220;2022-09-24T07:33:02;16.60;85.80
7658;DHT22;8462;53.156;8.220;2022-09-24T07:35:30;16.60;85.30
7658;DHT22;8462;53.156;8.220;2022-09-24T07:37:58;16.60;85.70
7658;DHT22;8462;53.156;8.220;2022-09-24T07:40:26;16.60;85.70
7658;DHT22;8462;53.156;8.220;2022-09-24T07:42:55;16.60;85.80
7658;DHT22;8462;53.156;8.220;2022-09-24T07:45:24;16.80;85.60
7658;DHT22;8462;53.156;8.220;2022-09-24T07:47:56;16.80;85.10
7658;DHT22;8462;53.156;8.220;2022-09-24T07:50:24;16.80;84.90
7658;DHT22;8462;53.156;8.220;2022-09-24T07:52:52;16.80;85.00
7658;DHT22;8462;53.156;8.220;2022-09-24T07:55:19;16.80;84.80
7658;DHT22;8462;53.156;8.220;2022-09-24T07:57:46;16.80;85.30
7658;DHT22;8462;53.156;8.220;2022-09-24T08:00:16;16.70;85.30
7658;DHT22;8462;53.156;8.220;2022-09-24T08:02:43;16.70;85.90
7658;DHT22;8462;53.156;8.220;2022-09-24T08:05:11;16.80;85.50
7658;DHT22;8462;53.156;8.220;2022-09-24T08:07:40;16.80;85.60
7658;DHT22;8462;53.156;8.220;2022-09-24T08:10:07;16.80;85.50
7658;DHT22;8462;53.156;8.220;2022-09-24T08:12:34;16.80;85.10
7658;DHT22;8462;53.156;8.220;2022-09-24T08:15:02;16.80;85.20
7658;DHT22;8462;53.156;8.220;2022-09-24T08:17:30;16.80;85.30
7658;DHT22;8462;53.156;8.220;2022-09-24T08:19:57;16.90;85.30
7658;DHT22;8462;53.156;8.220;2022-09-24T08:22:24;16.90;85.20
7658;DHT22;8462;53.156;8.220;2022-09-24T08:24:51;17.00;85.40
7658;DHT22;8462;53.156;8.220;2022-09-24T08:27:19;17.10;85.20
7658;DHT22;8462;53.156;8.220;2022-09-24T08:29:46;17.10;85.20
7658;DHT22;8462;53.156;8.220;2022-09-24T08:32:13;17.20;84.90
7658;DHT22;8462;53.156;8.220;2022-09-24T08:34:42;17.20;84.60
7658;DHT22;8462;53.156;8.220;2022-09-24T08:37:10;17.30;84.50
7658;DHT22;8462;53.156;8.220;2022-09-24T08:39:38;17.30;84.20
7658;DHT22;8462;53.156;8.220;2022-09-24T08:42:10;17.40;84.10
7658;DHT22;8462;53.156;8.220;2022-09-24T08:44:41;17.50;84.00
7658;DHT22;8462;53.156;8.220;2022-09-24T08:47:33;17.60;83.70
7658;DHT22;8462;53.156;8.220;2022-09-24T08:50:10;17.60;84.10
7658;DHT22;8462;53.156;8.220;2022-09-24T08:52:52;17.70;84.00
7658;DHT22;8462;53.156;8.220;2022-09-24T08:55:28;17.80;83.50
7658;DHT22;8462;53.156;8.220;2022-09-24T08:58:22;17.90;82.70
7658;DHT22;8462;53.156;8.220;2022-09-24T09:00:54;18.00;82.50
7658;DHT22;8462;53.156;8.220;2022-09-24T09:03:29;18.00;81.90
7658;DHT22;8462;53.156;8.220;2022-09-24T09:06:05;18.00;81.90
7658;DHT22;8462;53.156;8.220;2022-09-24T09:08:41;18.00;82.10
7658;DHT22;8462;53.156;8.220;2022-09-24T09:11:13;18.10;82.30
7658;DHT22;8462;53.156;8.220;2022-09-24T09:13:44;18.10;81.80
7658;DHT22;8462;53.156;8.220;2022-09-24T09:16:20;18.10;81.40
7658;DHT22;8462;53.156;8.220;2022-09-24T09:18:50;18.10;81.70
7658;DHT22;8462;53.156;8.220;2022-09-24T09:21:25;18.20;81.60
7658;DHT22;8462;53.156;8.220;2022-09-24T09:23:55;18.20;81.50
7658;DHT22;8462;53.156;8.220;2022-09-24T09:26:24;18.30;81.80
7658;DHT22;8462;53.156;8.220;2022-09-24T09:28:57;18.40;81.60
7658;DHT22;8462;53.156;8.220;2022-09-24T09:31:38;18.40;82.00
7658;DHT22;8462;53.156;8.220;2022-09-24T09:34:30;18.30;81.00
7658;DHT22;8462;53.156;8.220;2022-09-24T09:37:12;18.30;81.10
7658;DHT22;8462;53.156;8.220;2022-09-24T09:39:46;18.20;81.10
7658;DHT22;8462;53.156;8.220;2022-09-24T09:42:25;18.20;81.60
7658;DHT22;8462;53.156;8.220;2022-09-24T09:44:53;18.20;81.50
7658;DHT22;8462;53.156;8.220;2022-09-24T09:47:26;18.10;81.20
7658;DHT22;8462;53.156;8.220;2022-09-24T09:49:57;18.10;81.90
7658;DHT22;8462;53.156;8.220;2022-09-24T09:52:30;18.00;81.40
7658;DHT22;8462;53.156;8.220;2022-09-24T09:54:59;18.10;82.00
7658;DHT22;8462;53.156;8.220;2022-09-24T09:57:30;18.00;82.20
7658;DHT22;8462;53.156;8.220;2022-09-24T09:59:58;18.10;82.60
7658;DHT22;8462;53.156;8.220;2022-09-24T10:02:28;18.20;82.00
7658;DHT22;8462;53.156;8.220;2022-09-24T10:04:57;18.30;81.80
7658;DHT22;8462;53.156;8.220;2022-09-24T10:07:25;18.40;81.60
7658;DHT22;8462;53.156;8.220;2022-09-24T10:10:10;18.40;81.40
7658;DHT22;8462;53.156;8.220;2022-09-24T10:12:41;18.40;81.30
7658;DHT22;8462;53.156;8.220;2022-09-24T10:15:15;18.50;80.40
7658;DHT22;8462;53.156;8.220;2022-09-24T10:17:44;18.50;80.30
7658;DHT22;8462;53.156;8.220;2022-09-24T10:20:16;18.50;80.40
7658;DHT22;8462;53.156;8.220;2022-09-24T10:22:48;18.60;80.60
7658;DHT22;8462;53.156;8.220;2022-09-24T10:25:19;18.70;81.10
7658;DHT22;8462;53.156;8.220;2022-09-24T10:27:50;18.90;79.90
7658;DHT22;8462;53.156;8.220;2022-09-24T10:30:17;19.20;80.40
7658;DHT22;8462;53.156;8.220;2022-09-24T10:33:00;19.60;79.60
7658;DHT22;8462;53.156;8.220;2022-09-24T10:35:32;19.80;77.10
7658;DHT22;8462;53.156;8.220;2022-09-24T10:38:01;19.90;75.90
7658;DHT22;8462;53.156;8.220;2022-09-24T10:40:37;19.90;75.90
7658;DHT22;8462;53.156;8.220;2022-09-24T10:43:05;19.90;77.60
7658;DHT22;8462;53.156;8.220;2022-09-24T10:46:22;20.00;76.40
7658;DHT22;8462;53.156;8.220;2022-09-24T10:48:57;19.90;75.30
7658;DHT22;8462;53.156;8.220;2022-09-24T10:51:32;19.80;75.70
7658;DHT22;8462;53.156;8.220;2022-09-24T10:54:18;19.70;76.30
7658;DHT22;8462;53.156;8.220;2022-09-24T10:56:52;19.70;76.20
7658;DHT22;8462;53.156;8.220;2022-09-24T10:59:29;19.60;76.80
7658;DHT22;8462;53.156;8.220;2022-09-24T11:02:09;19.70;76.20
7658;DHT22;8462;53.156;8.220;2022-09-24T11:04:49;19.70;75.70
7658;DHT22;8462;53.156;8.220;2022-09-24T11:07:40;19.60;75.80
7658;DHT22;8462;53.156;8.220;2022-09-24T11:10:19;19.40;75.80
7658;DHT22;8462;53.156;8.220;2022-09-24T11:12:59;19.20;76.40
7658;DHT22;8462;53.156;8.220;2022-09-24T11:15:42;19.10;76.80
7658;DHT22;8462;53.156;8.220;2022-09-24T11:18:23;18.90;77.40
7658;DHT22;8462;53.156;8.220;2022-09-24T11:20:58;18.80;77.90
7658;DHT22;8462;53.156;8.220;2022-09-24T11:23:45;18.80;78.60
7658;DHT22;8462;53.156;8.220;2022-09-24T11:26:24;18.80;78.90
7658;DHT22;8462;53.156;8.220;2022-09-24T11:29:17;18.70;79.00
7658;DHT22;8462;53.156;8.220;2022-09-24T11:31:53;18.70;79.30
7658;DHT22;8462;53.156;8.220;2022-09-24T11:34:37;18.70;79.40
7658;DHT22;8462;53.156;8.220;2022-09-24T11:37:20;18.70;79.30
7658;DHT22;8462;53.156;8.220;2022-09-24T11:40:03;18.80;79.30
7658;DHT22;8462;53.156;8.220;2022-09-24T11:42:45;18.80;79.40
7658;DHT22;8462;53.156;8.220;2022-09-24T11:45:25;18.80;79.10
7658;DHT22;8462;53.156;8.220;2022-09-24T11:50:54;18.90;79.30
7658;DHT22;8462;53.156;8.220;2022-09-24T11:53:30;19.10;78.90
7658;DHT22;8462;53.156;8.220;2022-09-24T11:56:04;19.20;79.10
7658;DHT22;8462;53.156;8.220;2022-09-24T11:58:35;19.30;78.50
7658;DHT22;8462;53.156;8.220;2022-09-24T12:01:11;19.30;78.10
7658;DHT22;8462;53.156;8.220;2022-09-24T12:03:44;19.30;78.00
7658;DHT22;8462;53.156;8.220;2022-09-24T12:06:15;19.30;78.10
7658;DHT22;8462;53.156;8.220;2022-09-24T12:08:49;19.30;78.00
7658;DHT22;8462;53.156;8.220;2022-09-24T12:11:21;19.20;77.90
7658;DHT22;8462;53.156;8.220;2022-09-24T12:13:57;19.20;78.20
7658;DHT22;8462;53.156;8.220;2022-09-24T12:16:32;19.30;78.50
7658;DHT22;8462;53.156;8.220;2022-09-24T12:19:06;19.40;78.40
7658;DHT22;8462;53.156;8.220;2022-09-24T12:21:37;19.40;78.00
7658;DHT22;8462;53.156;8.220;2022-09-24T12:24:10;19.40;77.70
7658;DHT22;8462;53.156;8.220;2022-09-24T12:26:41;19.50;78.00
7658;DHT22;8462;53.156;8.220;2022-09-24T12:29:36;19.50;77.60
7658;DHT22;8462;53.156;8.220;2022-09-24T12:32:29;19.40;78.00
7658;DHT22;8462;53.156;8.220;2022-09-24T12:35:22;19.30;78.30
7658;DHT22;8462;53.156;8.220;2022-09-24T12:37:56;19.30;78.60
7658;DHT22;8462;53.156;8.220;2022-09-24T12:40:43;19.30;78.90
7658;DHT22;8462;53.156;8.220;2022-09-24T12:43:22;19.40;79.30
7658;DHT22;8462;53.156;8.220;2022-09-24T12:45:57;19.40;79.00
7658;DHT22;8462;53.156;8.220;2022-09-24T12:48:26;19.40;79.20
7658;DHT22;8462;53.156;8.220;2022-09-24T12:50:56;19.40;79.60
7658;DHT22;8462;53.156;8.220;2022-09-24T12:53:30;19.40;79.20
7658;DHT22;8462;53.156;8.220;2022-09-24T12:55:59;19.40;79.70
7658;DHT22;8462;53.156;8.220;2022-09-24T12:58:29;19.50;79.60
7658;DHT22;8462;53.156;8.220;2022-09-24T13:01:13;19.50;79.60
7658;DHT22;8462;53.156;8.220;2022-09-24T13:06:47;19.40;79.10
7658;DHT22;8462;53.156;8.220;2022-09-24T13:09:34;19.40;79.40
7658;DHT22;8462;53.156;8.220;2022-09-24T13:12:19;19.50;79.60
7658;DHT22;8462;53.156;8.220;2022-09-24T13:14:50;19.50;79.30
7658;DHT22;8462;53.156;8.220;2022-09-24T13:17:20;19.40;79.00
7658;DHT22;8462;53.156;8.220;2022-09-24T13:19:49;19.40;79.30
7658;DHT22;8462;53.156;8.220;2022-09-24T13:22:25;19.40;79.20
7658;DHT22;8462;53.156;8.220;2022-09-24T13:25:13;19.40;79.50
7658;DHT22;8462;53.156;8.220;2022-09-24T13:27:55;19.40;79.70
7658;DHT22;8462;53.156;8.220;2022-09-24T13:30:31;19.40;79.20
7658;DHT22;8462;53.156;8.220;2022-09-24T13:33:15;19.40;79.20
7658;DHT22;8462;53.156;8.220;2022-09-24T13:35:59;19.30;79.40
7658;DHT22;8462;53.156;8.220;2022-09-24T13:38:30;19.20;79.40
7658;DHT22;8462;53.156;8.220;2022-09-24T13:41:01;19.20;79.70
7658;DHT22;8462;53.156;8.220;2022-09-24T13:43:37;19.20;79.90
7658;DHT22;8462;53.156;8.220;2022-09-24T13:46:09;19.10;79.70
7658;DHT22;8462;53.156;8.220;2022-09-24T13:48:41;19.10;80.20
7658;DHT22;8462;53.156;8.220;2022-09-24T13:51:12;19.10;80.70
7658;DHT22;8462;53.156;8.220;2022-09-24T13:53:41;19.10;80.90
7658;DHT22;8462;53.156;8.220;2022-09-24T13:56:12;19.10;80.70
7658;DHT22;8462;53.156;8.220;2022-09-24T13:58:40;19.20;81.10
7658;DHT22;8462;53.156;8.220;2022-09-24T14:01:12;19.30;81.50
7658;DHT22;8462;53.156;8.220;2022-09-24T14:03:41;19.40;81.60
7658;DHT22;8462;53.156;8.220;2022-09-24T14:06:11;19.40;81.00
7658;DHT22;8462;53.156;8.220;2022-09-24T14:08:40;19.50;80.90
7658;DHT22;8462;53.156;8.220;2022-09-24T14:11:14;19.60;80.90
7658;DHT22;8462;53.156;8.220;2022-09-24T14:13:41;19.60;80.30
7658;DHT22;8462;53.156;8.220;2022-09-24T14:16:13;19.40;79.10
7658;DHT22;8462;53.156;8.220;2022-09-24T14:18:41;19.10;79.30
7658;DHT22;8462;53.156;8.220;2022-09-24T14:21:13;18.90;79.80
7658;DHT22;8462;53.156;8.220;2022-09-24T14:23:43;18.70;80.40
7658;DHT22;8462;53.156;8.220;2022-09-24T14:26:19;18.60;81.40
7658;DHT22;8462;53.156;8.220;2022-09-24T14:28:49;18.50;81.90
7658;DHT22;8462;53.156;8.220;2022-09-24T14:31:16;18.40;82.00
7658;DHT22;8462;53.156;8.220;2022-09-24T14:33:43;18.40;82.60
7658;DHT22;8462;53.156;8.220;2022-09-24T14:36:13;18.50;83.80
7658;DHT22;8462;53.156;8.220;2022-09-24T14:38:48;18.40;83.70
7658;DHT22;8462;53.156;8.220;2022-09-24T14:41:18;18.40;82.60
7658;DHT22;8462;53.156;8.220;2022-09-24T14:43:50;18.30;82.70
7658;DHT22;8462;53.156;8.220;2022-09-24T14:46:20;18.30;83.00
7658;DHT22;8462;53.156;8.220;2022-09-24T14:48:49;18.30;82.90
7658;DHT22;8462;53.156;8.220;2022-09-24T14:51:24;18.20;83.10
7658;DHT22;8462;53.156;8.220;2022-09-24T14:53:59;18.10;83.40
7658;DHT22;8462;53.156;8.220;2022-09-24T14:56:28;18.10;83.40
7658;DHT22;8462;53.156;8.220;2022-09-24T14:58:56;18.00;83.70
7658;DHT22;8462;53.156;8.220;2022-09-24T15:01:28;17.90;83.90
7658;DHT22;8462;53.156;8.220;2022-09-24T15:03:57;17.90;84.20
7658;DHT22;8462;53.156;8.220;2022-09-24T15:06:27;17.80;84.20
7658;DHT22;8462;53.156;8.220;2022-09-24T15:09:01;17.60;83.40
7658;DHT22;8462;53.156;8.220;2022-09-24T15:11:30;17.40;84.20
7658;DHT22;8462;53.156;8.220;2022-09-24T15:14:01;17.20;84.70
7658;DHT22;8462;53.156;8.220;2022-09-24T15:16:31;17.20;84.90
7658;DHT22;8462;53.156;8.220;2022-09-24T15:19:12;17.00;85.00
7658;DHT22;8462;53.156;8.220;2022-09-24T15:21:41;16.90;85.70
7658;DHT22;8462;53.156;8.220;2022-09-24T15:24:08;16.80;86.00
7658;DHT22;8462;53.156;8.220;2022-09-24T15:26:38;16.70;86.10
7658;DHT22;8462;53.156;8.220;2022-09-24T15:29:06;16.60;86.90
7658;DHT22;8462;53.156;8.220;2022-09-24T15:31:33;16.60;87.10
7658;DHT22;8462;53.156;8.220;2022-09-24T15:34:00;16.50;87.30
7658;DHT22;8462;53.156;8.220;2022-09-24T15:36:27;16.50;87.50
7658;DHT22;8462;53.156;8.220;2022-09-24T15:38:58;16.50;87.20
7658;DHT22;8462;53.156;8.220;2022-09-24T15:41:26;16.50;87.00
7658;DHT22;8462;53.156;8.220;2022-09-24T15:43:55;16.40;87.10
7658;DHT22;8462;53.156;8.220;2022-09-24T15:46:23;16.50;87.60
7658;DHT22;8462;53.156;8.220;2022-09-24T15:48:50;16.40;87.40
7658;DHT22;8462;53.156;8.220;2022-09-24T15:51:19;16.40;86.90
7658;DHT22;8462;53.156;8.220;2022-09-24T15:53:46;16.40;87.10
7658;DHT22;8462;53.156;8.220;2022-09-24T15:56:16;16.40;86.90
7658;DHT22;8462;53.156;8.220;2022-09-24T15:58:44;16.40;87.10
7658;DHT22;8462;53.156;8.220;2022-09-24T16:01:15;16.40;86.90
7658;DHT22;8462;53.156;8.220;2022-09-24T16:03:42;16.40;86.80
7658;DHT22;8462;53.156;8.220;2022-09-24T16:06:10;16.40;86.50
7658;DHT22;8462;53.156;8.220;2022-09-24T16:08:39;16.30;86.50
7658;DHT22;8462;53.156;8.220;2022-09-24T16:11:07;16.30;86.70
7658;DHT22;8462;53.156;8.220;2022-09-24T16:13:36;16.20;87.10
7658;DHT22;8462;53.156;8.220;2022-09-24T16:16:05;16.20;87.20
7658;DHT22;8462;53.156;8.220;2022-09-24T16:18:32;16.20;87.10
7658;DHT22;8462;53.156;8.220;2022-09-24T16:21:05;16.20;87.30
7658;DHT22;8462;53.156;8.220;2022-09-24T16:23:32;16.20;86.80
7658;DHT22;8462;53.156;8.220;2022-09-24T16:26:00;16.10;86.40
7658;DHT22;8462;53.156;8.220;2022-09-24T16:28:29;16.00;87.10
7658;DHT22;8462;53.156;8.220;2022-09-24T16:30:57;16.00;87.00
7658;DHT22;8462;53.156;8.220;2022-09-24T16:33:24;16.00;87.30